createdAt,value
2022-10-18T00:00:24.765Z,20.30
2022-10-18T00:05:48.795Z,21.23
2022-10-18T00:10:51.445Z,19.44
2022-10-18T00:16:00.219Z,19.60
2022-10-18T00:21:08.674Z,21.12
2022-10-18T00:26:32.558Z,19.47
2022-10-18T00:31:37.587Z,19.66
2022-10-18T00:36:41.030Z,21.17
2022-10-18T00:41:44.718Z,19.58
2022-10-18T00:46:49.074Z,19.77
2022-10-18T00:52:32.469Z,21.86
2022-10-18T00:57:36.758Z,20.44
2022-10-18T01:02:42.542Z,19.07
2022-10-18T01:08:13.251Z,18.18
2022-10-18T01:13:44.262Z,19.15
2022-10-18T01:19:11.850Z,21.64
2022-10-18T01:24:32.771Z,20.98
2022-10-18T01:29:57.592Z,19.16
2022-10-18T01:35:05.082Z,18.07
2022-10-18T01:40:10.020Z,18.87
2022-10-18T01:45:14.979Z,21.46
2022-10-18T01:50:30.098Z,21.39
2022-10-18T01:55:48.648Z,19.42
2022-10-18T02:01:16.928Z,18.25
2022-10-18T02:06:39.305Z,19.15
2022-10-18T02:11:45.172Z,21.64
2022-10-18T02:16:54.626Z,21.13
2022-10-18T02:21:58.962Z,19.23
2022-10-18T02:27:02.585Z,19.39
2022-10-18T02:32:05.234Z,21.35
2022-10-18T02:37:10.826Z,19.88
2022-10-18T02:42:15.314Z,18.21
2022-10-18T02:47:18.318Z,18.85
2022-10-18T02:52:21.118Z,21.12
2022-10-18T02:57:23.778Z,21.16
2022-10-18T03:02:27.095Z,19.27
2022-10-18T03:07:30.079Z,18.08
2022-10-18T03:12:33.281Z,18.66
2022-10-18T03:17:36.009Z,21.01
2022-10-18T03:22:38.640Z,20.99
2022-10-18T03:27:41.331Z,19.07
2022-10-18T03:32:43.944Z,19.13
2022-10-18T03:37:46.626Z,21.26
2022-10-18T03:42:49.537Z,20.10
2022-10-18T03:47:52.241Z,18.36
2022-10-18T03:52:55.654Z,18.58
2022-10-18T03:57:58.272Z,20.78
2022-10-18T04:03:00.949Z,20.77
2022-10-18T04:08:04.711Z,18.67
2022-10-18T04:13:07.978Z,18.66
2022-10-18T04:18:10.595Z,20.98
2022-10-18T04:23:13.201Z,20.61
2022-10-18T04:28:15.976Z,18.51
2022-10-18T04:33:19.686Z,18.59
2022-10-18T04:38:22.522Z,20.80
2022-10-18T04:43:25.112Z,20.78
2022-10-18T04:48:28.346Z,18.71
2022-10-18T04:53:31.066Z,18.72
2022-10-18T04:58:33.804Z,20.94
2022-10-18T05:03:36.405Z,20.96
2022-10-18T05:08:39.061Z,18.96
2022-10-18T05:13:41.695Z,18.34
2022-10-18T05:18:44.394Z,20.67
2022-10-18T05:23:47.014Z,20.73
2022-10-18T05:28:50.778Z,18.66
2022-10-18T05:33:53.512Z,18.74
2022-10-18T05:38:58.635Z,21.00
2022-10-18T05:44:07.206Z,20.98
2022-10-18T05:49:13.614Z,18.90
2022-10-18T05:54:16.881Z,18.90
2022-10-18T05:59:20.222Z,20.99
2022-10-18T06:04:23.413Z,21.02
2022-10-18T06:09:27.386Z,18.96
2022-10-18T06:14:35.887Z,18.92
2022-10-18T06:19:55.182Z,21.06
2022-10-18T06:24:57.805Z,21.02
2022-10-18T06:30:00.537Z,19.04
2022-10-18T06:35:03.269Z,19.11
2022-10-18T06:40:07.135Z,21.26
2022-10-18T06:45:10.064Z,21.28
2022-10-18T06:50:15.435Z,19.34
2022-10-18T06:55:18.313Z,19.45
2022-10-18T07:00:20.959Z,21.60
2022-10-18T07:05:23.855Z,21.36
2022-10-18T07:10:26.554Z,19.26
2022-10-18T07:15:29.570Z,19.31
2022-10-18T07:20:32.394Z,21.55
2022-10-18T07:25:35.688Z,21.54
2022-10-18T07:30:38.390Z,19.59
2022-10-18T07:35:41.375Z,19.66
2022-10-18T07:40:44.093Z,21.75
2022-10-18T07:45:53.364Z,21.65
2022-10-18T07:51:00.090Z,19.54
2022-10-18T07:56:08.743Z,19.55
2022-10-18T08:01:16.293Z,21.60
2022-10-18T08:06:20.520Z,21.66
2022-10-18T08:11:25.471Z,19.68
2022-10-18T08:16:29.135Z,19.77
2022-10-18T08:21:31.872Z,21.83
2022-10-18T08:26:34.543Z,21.70
2022-10-18T08:31:37.386Z,19.71
2022-10-18T08:36:40.137Z,19.82
2022-10-18T08:42:07.508Z,21.99
2022-10-18T08:47:28.877Z,21.92
2022-10-18T08:52:45.891Z,20.00
2022-10-18T08:57:49.199Z,20.32
2022-10-18T09:03:13.360Z,22.28
2022-10-18T09:08:30.957Z,22.01
2022-10-18T09:13:37.635Z,19.99
2022-10-18T09:18:57.471Z,20.14
2022-10-18T09:24:14.051Z,22.36
2022-10-18T09:29:40.064Z,22.36
2022-10-18T09:34:46.754Z,20.26
2022-10-18T09:39:53.697Z,19.05
2022-10-18T09:45:03.943Z,20.41
2022-10-18T09:50:30.696Z,22.02
2022-10-18T09:55:39.850Z,20.65
2022-10-18T10:00:48.572Z,20.57
2022-10-18T10:06:17.020Z,22.63
2022-10-18T10:11:36.456Z,22.38
2022-10-18T10:16:52.328Z,20.38
2022-10-18T10:21:59.067Z,20.69
2022-10-18T10:27:05.844Z,22.70
2022-10-18T10:32:13.594Z,22.59
2022-10-18T10:37:34.999Z,20.57
2022-10-18T10:42:48.912Z,20.76
2022-10-18T10:47:53.765Z,22.64
2022-10-18T10:52:56.698Z,22.38
2022-10-18T10:58:00.477Z,20.31
2022-10-18T11:03:28.427Z,20.41
2022-10-18T11:08:38.252Z,22.58
2022-10-18T11:14:13.236Z,22.49
2022-10-18T11:19:40.729Z,20.32
2022-10-18T11:24:43.817Z,20.56
2022-10-18T11:29:51.360Z,22.65
2022-10-18T11:35:25.725Z,22.58
2022-10-18T11:41:24.979Z,20.41
2022-10-18T11:47:09.367Z,20.93
2022-10-18T11:52:41.812Z,22.85
2022-10-18T11:58:18.847Z,22.31
2022-10-18T12:03:29.185Z,20.13
2022-10-18T12:08:40.166Z,20.95
2022-10-18T12:13:51.498Z,22.72
2022-10-18T12:18:58.416Z,22.45
2022-10-18T12:24:22.188Z,20.49
2022-10-18T12:29:32.981Z,20.69
2022-10-18T12:34:43.749Z,22.68
2022-10-18T12:45:33.244Z,20.31
2022-10-18T12:50:39.707Z,20.49
2022-10-18T12:55:45.476Z,22.53
2022-10-18T13:00:49.077Z,22.38
2022-10-18T13:06:01.601Z,20.33
2022-10-18T13:11:08.486Z,20.87
2022-10-18T13:16:20.406Z,22.33
2022-10-18T13:21:25.643Z,20.81
2022-10-18T13:27:34.960Z,20.48
2022-10-18T13:32:44.573Z,22.52
2022-10-18T13:37:59.668Z,22.22
2022-10-18T13:43:39.819Z,20.15
2022-10-18T13:49:05.685Z,20.52
2022-10-18T13:54:14.480Z,22.49
2022-10-18T13:59:30.244Z,22.32
2022-10-18T14:04:45.671Z,20.21
2022-10-18T14:09:56.078Z,20.28
2022-10-18T14:15:18.117Z,22.32
2022-10-18T14:20:28.557Z,22.06
2022-10-18T14:25:37.865Z,20.00
2022-10-18T14:30:55.720Z,20.14
2022-10-18T14:36:03.752Z,22.22
2022-10-18T14:41:15.089Z,22.12
2022-10-18T14:46:27.336Z,20.03
2022-10-18T14:51:36.488Z,20.08
2022-10-18T14:56:41.515Z,22.10
2022-10-18T15:01:53.957Z,21.98
2022-10-18T15:06:57.664Z,19.89
2022-10-18T15:12:03.162Z,19.96
2022-10-18T15:17:20.423Z,21.97
2022-10-18T15:22:32.910Z,22.36
2022-10-18T15:27:38.387Z,20.35
2022-10-18T15:32:51.853Z,20.04
2022-10-18T15:37:57.350Z,21.75
2022-10-18T15:43:03.702Z,20.43
2022-10-18T15:48:06.358Z,19.95
2022-10-18T15:53:21.330Z,21.85
2022-10-18T15:58:24.051Z,21.70
2022-10-18T16:03:27.480Z,19.63
2022-10-18T16:08:30.796Z,19.71
2022-10-18T16:13:33.673Z,21.82
2022-10-18T16:18:36.373Z,21.81
2022-10-18T16:23:38.983Z,19.71
2022-10-18T16:28:42.113Z,19.71
2022-10-18T16:33:45.992Z,21.75
2022-10-18T16:38:49.363Z,21.59
2022-10-18T16:43:52.083Z,19.49
2022-10-18T16:48:55.410Z,19.51
2022-10-18T16:53:58.418Z,21.62
2022-10-18T16:59:01.372Z,21.57
2022-10-18T17:04:04.152Z,19.58
2022-10-18T17:09:06.841Z,19.68
2022-10-18T17:14:09.539Z,21.71
2022-10-18T17:19:12.236Z,21.56
2022-10-18T17:24:14.935Z,19.53
2022-10-18T17:29:17.736Z,19.61
2022-10-18T17:34:21.532Z,21.55
2022-10-18T17:39:24.965Z,21.30
2022-10-18T17:44:27.559Z,19.28
2022-10-18T17:49:30.251Z,20.43
2022-10-18T17:54:32.897Z,21.73
2022-10-18T17:59:35.669Z,20.21
2022-10-18T18:04:38.444Z,18.40
2022-10-18T18:09:41.095Z,18.63
2022-10-18T18:14:43.866Z,20.71
2022-10-18T18:24:54.104Z,19.87
2022-10-18T18:29:56.888Z,17.92
2022-10-18T18:34:59.577Z,18.21
2022-10-18T18:40:02.180Z,20.52
2022-10-18T18:45:05.760Z,20.53
2022-10-18T18:50:08.799Z,18.38
2022-10-18T18:55:11.495Z,18.33
2022-10-18T19:00:15.116Z,20.38
2022-10-18T19:05:17.883Z,20.38
2022-10-18T19:10:20.595Z,18.21
2022-10-18T19:15:23.621Z,18.11
2022-10-18T19:20:26.321Z,20.27
2022-10-18T19:25:29.126Z,20.15
2022-10-18T19:30:31.720Z,17.98
2022-10-18T19:35:34.335Z,17.85
2022-10-18T19:40:37.015Z,19.95
2022-10-18T19:45:39.715Z,19.11
2022-10-18T19:50:42.413Z,17.65
2022-10-18T19:55:45.108Z,19.37
2022-10-18T20:00:52.731Z,19.32
2022-10-18T20:05:56.895Z,17.18
2022-10-18T20:11:04.787Z,15.84
2022-10-18T20:16:09.268Z,16.44
2022-10-18T20:21:14.359Z,18.94
2022-10-18T20:26:20.804Z,18.71
2022-10-18T20:31:27.858Z,16.61
2022-10-18T20:36:31.740Z,15.66
2022-10-18T20:41:38.117Z,18.18
2022-10-18T20:46:41.371Z,18.51
2022-10-18T20:51:44.788Z,16.37
2022-10-18T20:56:47.415Z,16.36
2022-10-18T21:01:50.159Z,18.59
2022-10-18T21:06:53.070Z,18.41
2022-10-18T21:11:56.308Z,16.27
2022-10-18T21:16:59.313Z,17.54
2022-10-18T21:22:02.007Z,18.74
2022-10-18T21:27:04.709Z,16.82
2022-10-18T21:32:07.406Z,16.46
2022-10-18T21:37:10.101Z,18.28
2022-10-18T21:42:13.835Z,17.27
2022-10-18T21:47:16.499Z,15.43
2022-10-18T21:52:19.122Z,16.76
2022-10-18T21:57:21.823Z,18.61
2022-10-18T22:02:24.519Z,17.94
2022-10-18T22:07:27.218Z,15.81
2022-10-18T22:12:30.041Z,16.66
2022-10-18T22:17:32.960Z,18.39
2022-10-18T22:22:35.929Z,17.76
2022-10-18T22:27:38.630Z,15.84
2022-10-18T22:32:41.308Z,16.88
2022-10-18T22:37:44.024Z,17.77
2022-10-18T22:42:46.727Z,15.89
2022-10-18T22:47:49.338Z,16.54
2022-10-18T22:52:54.018Z,17.55
2022-10-18T22:57:57.362Z,16.05
2022-10-18T23:02:59.950Z,17.24
2022-10-18T23:08:02.543Z,17.49
2022-10-18T23:13:06.311Z,15.58
2022-10-18T23:18:08.924Z,16.67
2022-10-18T23:23:12.785Z,18.06
2022-10-18T23:28:15.379Z,16.30
2022-10-18T23:33:17.992Z,17.35
2022-10-18T23:38:20.611Z,18.39
2022-10-18T23:43:23.513Z,16.58
2022-10-18T23:48:27.263Z,15.85
2022-10-18T23:53:30.264Z,17.75
2022-10-18T23:58:34.649Z,16.43
